createdAt,value
2022-12-29T00:00:12.559Z,1.13
2022-12-29T00:02:43.147Z,0.88
2022-12-29T00:05:11.655Z,1.45
2022-12-29T00:07:39.901Z,1.30
2022-12-29T00:10:08.726Z,1.20
2022-12-29T00:12:55.072Z,1.20
2022-12-29T00:15:41.320Z,1.00
2022-12-29T00:18:09.632Z,1.05
2022-12-29T00:20:56.456Z,0.93
2022-12-29T00:23:42.749Z,1.20
2022-12-29T00:26:35.199Z,1.35
2022-12-29T00:29:21.895Z,2.30
2022-12-29T00:32:08.515Z,1.27
2022-12-29T00:34:54.922Z,1.33
2022-12-29T00:37:42.779Z,0.90
2022-12-29T00:40:30.996Z,1.27
2022-12-29T00:43:17.147Z,1.08
2022-12-29T00:45:44.957Z,0.95
2022-12-29T00:48:12.892Z,1.30
2022-12-29T00:50:40.633Z,1.15
2022-12-29T00:53:08.611Z,1.40
2022-12-29T00:55:40.259Z,1.73
2022-12-29T00:58:08.290Z,1.20
2022-12-29T01:00:36.183Z,1.20
2022-12-29T01:03:04.614Z,0.93
2022-12-29T01:05:32.671Z,1.25
2022-12-29T01:08:00.587Z,1.00
2022-12-29T01:10:28.575Z,1.00
2022-12-29T01:12:56.400Z,1.10
2022-12-29T01:15:24.237Z,0.90
2022-12-29T01:17:52.064Z,0.98
2022-12-29T01:20:20.699Z,0.98
2022-12-29T01:22:48.607Z,1.10
2022-12-29T01:25:16.506Z,1.17
2022-12-29T01:27:46.057Z,1.15
2022-12-29T01:30:14.250Z,1.15
2022-12-29T01:32:42.270Z,0.93
2022-12-29T01:35:11.239Z,1.10
2022-12-29T01:37:38.970Z,1.20
2022-12-29T01:40:07.269Z,1.23
2022-12-29T01:42:35.497Z,1.10
2022-12-29T01:45:13.794Z,1.35
2022-12-29T01:47:54.785Z,1.00
2022-12-29T01:50:39.295Z,1.13
2022-12-29T01:53:21.882Z,0.98
2022-12-29T01:55:59.576Z,1.00
2022-12-29T01:58:32.255Z,1.15
2022-12-29T02:01:01.236Z,1.08
2022-12-29T02:03:29.984Z,0.90
2022-12-29T02:06:13.341Z,1.00
2022-12-29T02:08:43.050Z,1.10
2022-12-29T02:11:10.721Z,1.20
2022-12-29T02:13:38.511Z,0.95
2022-12-29T02:16:33.294Z,1.10
2022-12-29T02:19:28.469Z,1.33
2022-12-29T02:22:27.451Z,1.10
2022-12-29T02:25:30.627Z,1.27
2022-12-29T02:28:25.886Z,1.00
2022-12-29T02:31:31.775Z,1.08
2022-12-29T02:34:25.654Z,1.00
2022-12-29T02:37:02.825Z,1.13
2022-12-29T02:39:51.604Z,1.00
2022-12-29T02:42:38.402Z,1.00
2022-12-29T02:45:17.037Z,0.88
2022-12-29T02:48:10.775Z,1.10
2022-12-29T02:50:52.027Z,1.23
2022-12-29T02:53:43.897Z,1.00
2022-12-29T02:56:11.823Z,0.70
2022-12-29T02:58:39.734Z,1.08
2022-12-29T03:02:01.794Z,0.88
2022-12-29T03:07:19.006Z,0.90
2022-12-29T03:10:15.085Z,1.13
2022-12-29T03:13:37.676Z,0.85
2022-12-29T03:16:26.396Z,1.00
2022-12-29T03:19:03.022Z,0.80
2022-12-29T03:22:02.577Z,0.90
2022-12-29T03:24:38.811Z,0.82
2022-12-29T03:27:08.261Z,1.10
2022-12-29T03:29:48.481Z,0.80
2022-12-29T03:32:17.875Z,0.90
2022-12-29T03:34:54.297Z,1.25
2022-12-29T03:37:32.646Z,1.10
2022-12-29T03:40:01.137Z,1.02
2022-12-29T03:42:31.870Z,0.85
2022-12-29T03:44:59.842Z,0.95
2022-12-29T03:47:28.222Z,1.00
2022-12-29T03:49:56.628Z,0.90
2022-12-29T03:52:24.523Z,0.70
2022-12-29T03:54:54.122Z,0.75
2022-12-29T03:57:22.790Z,0.80
2022-12-29T03:59:58.573Z,1.10
2022-12-29T04:02:26.712Z,0.70
2022-12-29T04:04:55.434Z,0.65
2022-12-29T04:07:24.471Z,0.60
2022-12-29T04:09:55.552Z,0.90
2022-12-29T04:12:26.142Z,0.88
2022-12-29T04:14:54.405Z,0.70
2022-12-29T04:17:22.528Z,0.63
2022-12-29T04:20:13.620Z,0.80
2022-12-29T04:22:42.540Z,0.73
2022-12-29T04:25:10.677Z,0.80
2022-12-29T04:27:39.262Z,0.82
2022-12-29T04:30:23.681Z,0.85
2022-12-29T04:33:16.794Z,0.73
2022-12-29T04:35:47.267Z,0.90
2022-12-29T04:38:16.263Z,0.90
2022-12-29T04:40:45.766Z,0.80
2022-12-29T04:43:15.199Z,0.60
2022-12-29T04:46:21.684Z,0.70
2022-12-29T04:48:58.015Z,0.60
2022-12-29T04:51:44.961Z,0.70
2022-12-29T04:54:14.850Z,0.70
2022-12-29T04:56:45.205Z,0.63
2022-12-29T04:59:15.774Z,0.77
2022-12-29T05:01:45.877Z,0.90
2022-12-29T05:04:13.857Z,0.60
2022-12-29T05:06:43.326Z,0.63
2022-12-29T05:09:11.483Z,0.80
2022-12-29T05:11:40.063Z,0.60
2022-12-29T05:14:09.647Z,0.85
2022-12-29T05:16:38.884Z,0.63
2022-12-29T05:19:07.044Z,0.60
2022-12-29T05:21:35.942Z,0.80
2022-12-29T05:24:04.423Z,0.70
2022-12-29T05:26:32.607Z,0.40
2022-12-29T05:29:12.390Z,0.60
2022-12-29T05:31:40.404Z,0.85
2022-12-29T05:34:08.515Z,0.60
2022-12-29T05:36:38.215Z,0.60
2022-12-29T05:39:11.769Z,0.70
2022-12-29T05:41:39.622Z,0.70
2022-12-29T05:44:16.842Z,0.70
2022-12-29T05:47:12.407Z,0.63
2022-12-29T05:49:58.834Z,0.52
2022-12-29T05:52:52.755Z,0.75
2022-12-29T05:55:21.520Z,0.50
2022-12-29T05:57:52.344Z,0.88
2022-12-29T06:00:20.314Z,0.70
2022-12-29T06:02:48.843Z,0.50
2022-12-29T06:05:18.496Z,0.50
2022-12-29T06:07:46.539Z,0.60
2022-12-29T06:10:17.120Z,0.52
2022-12-29T06:12:56.610Z,1.00
2022-12-29T06:15:24.628Z,0.90
2022-12-29T06:17:52.218Z,0.40
2022-12-29T06:20:20.117Z,0.30
2022-12-29T06:22:48.968Z,0.35
2022-12-29T06:25:17.480Z,0.50
2022-12-29T06:27:46.049Z,0.55
2022-12-29T06:30:14.445Z,0.38
2022-12-29T06:32:42.713Z,0.60
2022-12-29T06:35:13.346Z,0.50
2022-12-29T06:37:46.445Z,0.52
2022-12-29T06:40:14.400Z,0.50
2022-12-29T06:43:06.847Z,0.55
2022-12-29T06:45:55.465Z,0.70
2022-12-29T06:48:23.350Z,0.60
2022-12-29T06:50:51.595Z,0.45
2022-12-29T06:53:19.549Z,0.22
2022-12-29T06:55:47.493Z,0.43
2022-12-29T06:58:15.799Z,0.30
2022-12-29T07:00:43.774Z,0.55
2022-12-29T07:03:11.764Z,0.43
2022-12-29T07:05:39.866Z,0.40
2022-12-29T07:08:07.796Z,0.30
2022-12-29T07:10:35.525Z,0.40
2022-12-29T07:13:03.262Z,0.30
2022-12-29T07:15:30.946Z,0.35
2022-12-29T07:17:58.684Z,0.50
2022-12-29T07:20:27.162Z,0.30
2022-12-29T07:22:55.240Z,0.43
2022-12-29T07:25:23.441Z,0.30
2022-12-29T07:27:51.435Z,0.32
2022-12-29T07:30:19.493Z,0.30
2022-12-29T07:32:47.520Z,0.45
2022-12-29T07:35:15.373Z,0.45
2022-12-29T07:37:43.339Z,0.30
2022-12-29T07:40:12.149Z,0.45
2022-12-29T07:42:40.085Z,0.28
2022-12-29T07:45:10.847Z,0.40
2022-12-29T07:48:09.987Z,0.30
2022-12-29T07:50:38.503Z,0.22
2022-12-29T07:53:09.208Z,0.30
2022-12-29T07:55:37.176Z,0.30
2022-12-29T07:58:05.187Z,0.40
2022-12-29T08:00:33.268Z,0.35
2022-12-29T08:03:01.741Z,0.20
2022-12-29T08:05:29.816Z,0.40
2022-12-29T08:07:58.092Z,0.30
2022-12-29T08:10:25.957Z,0.30
2022-12-29T08:12:54.148Z,0.40
2022-12-29T08:15:25.725Z,0.30
2022-12-29T08:17:56.471Z,0.30
2022-12-29T08:20:24.410Z,0.30
2022-12-29T08:22:52.800Z,0.20
2022-12-29T08:25:21.039Z,0.45
2022-12-29T08:27:49.069Z,0.30
2022-12-29T08:30:17.737Z,0.30
2022-12-29T08:32:45.669Z,0.40
2022-12-29T08:35:14.080Z,0.45
2022-12-29T08:37:42.016Z,0.32
2022-12-29T08:40:10.457Z,0.50
2022-12-29T08:42:38.257Z,0.30
2022-12-29T08:45:06.502Z,0.30
2022-12-29T08:47:34.255Z,0.60
2022-12-29T08:50:02.097Z,0.22
2022-12-29T08:52:29.943Z,0.40
2022-12-29T08:54:58.085Z,0.57
2022-12-29T08:57:26.136Z,0.50
2022-12-29T09:00:16.888Z,0.30
2022-12-29T09:02:45.036Z,0.52
2022-12-29T09:05:13.602Z,0.63
2022-12-29T09:07:41.753Z,0.43
2022-12-29T09:10:09.607Z,0.30
2022-12-29T09:12:37.471Z,0.70
2022-12-29T09:15:06.485Z,0.40
2022-12-29T09:17:44.687Z,0.40
2022-12-29T09:20:14.051Z,1.33
2022-12-29T09:22:42.210Z,0.30
2022-12-29T09:25:10.940Z,0.32
2022-12-29T09:27:39.223Z,0.40
2022-12-29T09:30:10.152Z,0.40
2022-12-29T09:32:44.565Z,0.38
2022-12-29T09:35:13.494Z,0.40
2022-12-29T09:37:41.415Z,0.22
2022-12-29T09:40:23.582Z,0.55
2022-12-29T09:43:33.582Z,0.20
2022-12-29T09:46:26.144Z,0.20
2022-12-29T09:49:00.924Z,0.40
2022-12-29T09:51:29.561Z,0.40
2022-12-29T09:54:33.134Z,0.20
2022-12-29T09:57:01.293Z,0.32
2022-12-29T09:59:40.608Z,0.20
2022-12-29T10:02:24.430Z,0.25
2022-12-29T10:04:53.389Z,0.20
2022-12-29T10:07:30.580Z,0.30
2022-12-29T10:10:07.957Z,0.55
2022-12-29T10:12:55.622Z,0.30
2022-12-29T10:15:39.750Z,0.20
2022-12-29T10:18:39.289Z,0.40
2022-12-29T10:21:23.382Z,0.13
2022-12-29T10:23:54.139Z,0.20
2022-12-29T10:26:43.025Z,0.15
2022-12-29T10:29:37.875Z,0.17
2022-12-29T10:32:11.465Z,0.15
2022-12-29T10:34:44.521Z,0.20
2022-12-29T10:37:18.777Z,0.30
2022-12-29T10:39:51.411Z,0.20
2022-12-29T10:42:22.562Z,0.20
2022-12-29T10:44:50.756Z,0.40
2022-12-29T10:47:24.914Z,0.43
2022-12-29T10:49:53.020Z,0.13
2022-12-29T10:52:22.385Z,0.10
2022-12-29T10:55:06.801Z,0.13
2022-12-29T10:57:42.974Z,0.10
2022-12-29T11:00:22.479Z,0.20
2022-12-29T11:03:05.476Z,0.20
2022-12-29T11:05:46.524Z,0.20
2022-12-29T11:08:20.644Z,0.10
2022-12-29T11:10:49.629Z,0.10
2022-12-29T11:13:20.280Z,0.10
2022-12-29T11:15:50.104Z,0.40
2022-12-29T11:18:32.189Z,0.25
2022-12-29T11:21:03.057Z,0.30
2022-12-29T11:23:39.632Z,0.32
2022-12-29T11:26:23.882Z,0.20
2022-12-29T11:29:20.664Z,0.30
2022-12-29T11:31:51.116Z,0.30
2022-12-29T11:34:26.514Z,0.30
2022-12-29T11:37:17.376Z,0.40
2022-12-29T11:39:48.052Z,0.28
2022-12-29T11:42:18.317Z,0.30
2022-12-29T11:44:48.343Z,0.38
2022-12-29T11:47:30.906Z,0.30
2022-12-29T11:50:05.584Z,0.30
2022-12-29T11:52:36.607Z,0.20
2022-12-29T11:55:07.149Z,0.38
2022-12-29T11:57:35.687Z,0.10
2022-12-29T12:00:15.926Z,0.17
2022-12-29T12:02:45.788Z,0.40
2022-12-29T12:05:17.192Z,0.25
2022-12-29T12:07:57.243Z,0.28
2022-12-29T12:10:35.622Z,0.30
2022-12-29T12:13:05.945Z,0.15
2022-12-29T12:15:47.480Z,0.20
2022-12-29T12:18:33.159Z,0.20
2022-12-29T12:21:09.859Z,0.30
2022-12-29T12:23:51.323Z,0.40
2022-12-29T12:32:33.485Z,0.35
2022-12-29T12:35:01.353Z,0.38
2022-12-29T12:37:39.202Z,0.30
2022-12-29T12:40:32.416Z,0.50
2022-12-29T12:43:21.389Z,0.68
2022-12-29T12:46:15.327Z,0.43
2022-12-29T12:48:58.268Z,0.20
2022-12-29T12:51:37.458Z,0.30
2022-12-29T12:54:08.427Z,0.30
2022-12-29T12:56:48.208Z,0.10
2022-12-29T12:59:40.623Z,0.73
2022-12-29T13:02:42.418Z,0.20
2022-12-29T13:05:35.156Z,0.30
2022-12-29T13:08:30.519Z,0.20
2022-12-29T13:11:13.898Z,0.40
2022-12-29T13:13:41.919Z,0.40
2022-12-29T13:16:25.229Z,0.40
2022-12-29T13:19:28.926Z,0.40
2022-12-29T13:22:08.031Z,0.30
2022-12-29T13:24:44.223Z,0.32
2022-12-29T13:27:45.574Z,0.38
2022-12-29T13:30:23.317Z,0.40
2022-12-29T13:33:20.960Z,0.50
2022-12-29T13:36:01.603Z,0.68
2022-12-29T13:38:52.433Z,0.32
2022-12-29T13:41:37.620Z,0.30
2022-12-29T13:44:07.601Z,0.30
2022-12-29T13:46:51.249Z,0.80
2022-12-29T13:49:28.561Z,0.40
2022-12-29T13:52:01.334Z,0.30
2022-12-29T13:54:57.398Z,0.20
2022-12-29T13:57:47.914Z,0.40
2022-12-29T14:00:22.010Z,0.60
2022-12-29T14:03:15.760Z,0.35
2022-12-29T14:06:05.535Z,0.43
2022-12-29T14:08:45.238Z,0.70
2022-12-29T14:11:15.458Z,0.80
2022-12-29T14:13:48.130Z,0.38
2022-12-29T14:16:29.901Z,0.68
2022-12-29T14:19:05.756Z,0.40
2022-12-29T14:21:35.185Z,0.82
2022-12-29T14:24:40.801Z,0.50
2022-12-29T14:27:11.814Z,0.68
2022-12-29T14:29:43.819Z,0.30
2022-12-29T14:32:27.002Z,0.40
2022-12-29T14:34:59.210Z,0.40
2022-12-29T14:37:35.274Z,0.40
2022-12-29T14:40:29.400Z,0.50
2022-12-29T14:42:58.096Z,0.52
2022-12-29T14:45:38.599Z,0.75
2022-12-29T14:48:27.230Z,0.65
2022-12-29T14:50:55.182Z,0.70
2022-12-29T14:53:47.500Z,0.70
2022-12-29T14:56:19.261Z,0.50
2022-12-29T14:58:51.583Z,0.50
2022-12-29T15:01:28.025Z,0.50
2022-12-29T15:03:59.393Z,0.60
2022-12-29T15:06:31.010Z,0.52
2022-12-29T15:09:01.727Z,0.57
2022-12-29T15:11:54.946Z,0.70
2022-12-29T15:14:56.371Z,0.75
2022-12-29T15:17:29.114Z,0.43
2022-12-29T15:19:58.754Z,0.52
2022-12-29T15:22:29.708Z,0.85
2022-12-29T15:24:59.275Z,0.77
2022-12-29T15:27:28.030Z,0.73
2022-12-29T15:30:03.156Z,0.60
2022-12-29T15:32:40.922Z,0.60
2022-12-29T15:35:28.550Z,0.55
2022-12-29T15:37:56.797Z,0.73
2022-12-29T15:40:32.889Z,0.38
2022-12-29T15:43:06.771Z,0.60
2022-12-29T15:45:36.890Z,1.25
2022-12-29T15:48:06.506Z,0.80
2022-12-29T15:50:36.635Z,0.75
2022-12-29T15:53:05.251Z,0.50
2022-12-29T15:55:38.086Z,0.60
2022-12-29T15:58:17.141Z,1.15
2022-12-29T16:00:49.781Z,0.75
2022-12-29T16:03:18.704Z,0.70
2022-12-29T16:05:56.842Z,0.63
2022-12-29T16:08:33.648Z,0.85
2022-12-29T16:11:31.108Z,0.52
2022-12-29T16:14:01.645Z,0.65
2022-12-29T16:16:38.409Z,0.50
2022-12-29T16:19:17.018Z,0.55
2022-12-29T16:21:45.716Z,0.80
2022-12-29T16:24:25.281Z,0.90
2022-12-29T16:27:00.657Z,0.60
2022-12-29T16:29:30.601Z,0.60
2022-12-29T16:32:06.488Z,0.73
2022-12-29T16:34:41.135Z,0.63
2022-12-29T16:37:32.063Z,0.70
2022-12-29T16:40:23.448Z,0.90
2022-12-29T16:42:52.609Z,0.70
2022-12-29T16:45:20.561Z,0.88
2022-12-29T16:47:49.441Z,0.65
2022-12-29T16:50:28.631Z,0.60
2022-12-29T16:52:56.870Z,0.73
2022-12-29T16:55:25.004Z,0.68
2022-12-29T16:57:56.928Z,0.80
2022-12-29T17:00:30.768Z,0.73
2022-12-29T17:03:00.925Z,0.70
2022-12-29T17:05:28.873Z,1.08
2022-12-29T17:08:02.090Z,0.75
2022-12-29T17:10:48.980Z,1.10
2022-12-29T17:13:16.961Z,0.70
2022-12-29T17:15:45.070Z,0.90
2022-12-29T17:18:14.317Z,1.20
2022-12-29T17:20:42.433Z,0.63
2022-12-29T17:23:24.349Z,0.85
2022-12-29T17:25:55.233Z,0.50
2022-12-29T17:28:31.424Z,0.60
2022-12-29T17:31:04.544Z,0.80
2022-12-29T17:33:40.170Z,1.00
2022-12-29T17:36:09.287Z,0.63
2022-12-29T17:38:37.840Z,0.50
2022-12-29T17:41:08.779Z,0.93
2022-12-29T17:43:37.271Z,0.65
2022-12-29T17:46:07.091Z,0.90
2022-12-29T17:48:35.123Z,0.55
2022-12-29T17:51:02.987Z,0.75
2022-12-29T17:53:31.971Z,0.52
2022-12-29T17:55:59.867Z,0.80
2022-12-29T17:58:29.586Z,0.70
2022-12-29T18:01:01.067Z,0.60
2022-12-29T18:03:31.343Z,0.80
2022-12-29T18:05:59.712Z,0.70
2022-12-29T18:08:29.583Z,0.68
2022-12-29T18:10:58.063Z,0.65
2022-12-29T18:13:36.041Z,0.90
2022-12-29T18:16:11.423Z,1.10
2022-12-29T18:18:39.347Z,0.95
2022-12-29T18:21:07.908Z,0.65
2022-12-29T18:23:35.863Z,0.57
2022-12-29T18:26:28.002Z,0.60
2022-12-29T18:28:57.979Z,0.40
2022-12-29T18:31:28.121Z,0.57
2022-12-29T18:33:58.125Z,0.60
2022-12-29T18:36:26.375Z,0.57
2022-12-29T18:38:55.005Z,0.60
2022-12-29T18:41:25.598Z,0.60
2022-12-29T18:43:53.928Z,0.88
2022-12-29T18:46:23.435Z,0.90
2022-12-29T18:48:52.617Z,0.70
2022-12-29T18:51:22.994Z,0.60
2022-12-29T18:53:54.386Z,0.70
2022-12-29T18:56:23.667Z,0.60
2022-12-29T18:58:54.090Z,0.50
2022-12-29T19:01:24.564Z,0.70
2022-12-29T19:03:53.193Z,0.60
2022-12-29T19:06:22.046Z,0.70
2022-12-29T19:08:50.129Z,0.55
2022-12-29T19:11:18.390Z,0.70
2022-12-29T19:13:46.458Z,0.45
2022-12-29T19:16:21.230Z,0.95
2022-12-29T19:19:07.414Z,0.50
2022-12-29T19:21:37.275Z,0.57
2022-12-29T19:24:06.719Z,0.60
2022-12-29T19:26:37.428Z,0.95
2022-12-29T19:29:07.646Z,0.68
2022-12-29T19:31:37.201Z,0.63
2022-12-29T19:34:05.154Z,0.90
2022-12-29T19:36:33.850Z,0.60
2022-12-29T19:39:01.820Z,0.50
2022-12-29T19:41:30.967Z,0.90
2022-12-29T19:43:58.970Z,0.60
2022-12-29T19:46:29.095Z,0.60
2022-12-29T19:48:59.240Z,0.60
2022-12-29T19:51:27.733Z,0.43
2022-12-29T19:53:56.274Z,0.77
2022-12-29T19:56:24.295Z,0.68
2022-12-29T19:58:53.733Z,0.60
2022-12-29T20:01:23.629Z,0.68
2022-12-29T20:03:51.916Z,0.75
2022-12-29T20:06:19.955Z,0.57
2022-12-29T20:08:47.835Z,0.60
2022-12-29T20:11:17.649Z,0.73
2022-12-29T20:13:46.049Z,0.80
2022-12-29T20:16:16.649Z,0.68
2022-12-29T20:18:46.630Z,0.50
2022-12-29T20:21:20.733Z,0.52
2022-12-29T20:23:49.700Z,0.73
2022-12-29T20:26:21.640Z,0.90
2022-12-29T20:28:50.274Z,0.60
2022-12-29T20:31:25.400Z,0.80
2022-12-29T20:33:53.508Z,0.75
2022-12-29T20:36:27.515Z,1.00
2022-12-29T20:38:57.439Z,0.75
2022-12-29T20:41:25.692Z,0.57
2022-12-29T20:43:54.522Z,0.65
2022-12-29T20:46:26.404Z,1.20
2022-12-29T20:48:59.072Z,0.65
2022-12-29T20:51:27.858Z,0.98
2022-12-29T20:53:56.247Z,1.42
2022-12-29T20:56:26.132Z,1.08
2022-12-29T21:01:43.345Z,0.57
2022-12-29T21:04:14.270Z,0.63
2022-12-29T21:06:42.423Z,0.95
2022-12-29T21:09:10.552Z,0.82
2022-12-29T21:11:44.058Z,0.68
2022-12-29T21:14:12.398Z,0.90
2022-12-29T21:16:40.706Z,0.90
2022-12-29T21:19:08.742Z,0.90
2022-12-29T21:21:36.828Z,0.70
2022-12-29T21:24:13.827Z,0.90
2022-12-29T21:26:47.824Z,0.85
2022-12-29T21:29:39.616Z,1.42
2022-12-29T21:32:09.825Z,1.35
2022-12-29T21:34:43.604Z,1.02
2022-12-29T21:37:11.627Z,0.80
2022-12-29T21:39:42.325Z,1.13
2022-12-29T21:42:10.248Z,1.27
2022-12-29T21:45:07.251Z,1.27
2022-12-29T21:47:55.695Z,0.63
2022-12-29T21:50:26.352Z,1.02
2022-12-29T21:52:59.717Z,0.88
2022-12-29T21:55:30.820Z,0.90
2022-12-29T21:58:17.155Z,0.80
2022-12-29T22:01:04.611Z,0.95
2022-12-29T22:03:50.964Z,0.68
2022-12-29T22:06:37.394Z,0.98
2022-12-29T22:09:33.446Z,1.10
2022-12-29T22:12:21.545Z,0.80
2022-12-29T22:14:49.576Z,1.10
2022-12-29T22:17:19.453Z,0.70
2022-12-29T22:19:50.035Z,1.60
2022-12-29T22:22:18.037Z,1.58
2022-12-29T22:24:46.035Z,1.15
2022-12-29T22:27:17.244Z,0.80
2022-12-29T22:29:45.859Z,0.77
2022-12-29T22:32:13.922Z,1.20
2022-12-29T22:34:42.372Z,1.08
2022-12-29T22:37:10.545Z,0.80
2022-12-29T22:39:38.577Z,0.80
2022-12-29T22:42:06.721Z,0.65
2022-12-29T22:44:34.805Z,0.70
2022-12-29T22:47:03.528Z,0.98
2022-12-29T22:49:31.628Z,0.90
2022-12-29T22:52:02.140Z,1.10
2022-12-29T22:54:30.129Z,1.25
2022-12-29T22:57:03.978Z,0.95
2022-12-29T22:59:35.025Z,1.05
2022-12-29T23:02:03.199Z,1.10
2022-12-29T23:07:27.787Z,1.00
2022-12-29T23:09:55.847Z,1.40
2022-12-29T23:12:23.778Z,1.15
2022-12-29T23:14:51.600Z,1.30
2022-12-29T23:17:19.397Z,1.10
2022-12-29T23:19:47.407Z,1.00
2022-12-29T23:22:15.263Z,1.30
2022-12-29T23:24:45.549Z,1.20
2022-12-29T23:27:13.498Z,1.10
2022-12-29T23:29:41.493Z,1.75
2022-12-29T23:32:09.770Z,1.02
2022-12-29T23:34:37.894Z,1.13
2022-12-29T23:37:05.849Z,1.50
2022-12-29T23:39:33.834Z,1.58
2022-12-29T23:42:01.981Z,1.02
2022-12-29T23:44:30.186Z,1.48
2022-12-29T23:46:58.113Z,1.13
2022-12-29T23:49:26.158Z,1.23
2022-12-29T23:51:54.325Z,1.17
2022-12-29T23:54:22.220Z,1.30
2022-12-29T23:56:50.419Z,1.20
2022-12-29T23:59:18.356Z,1.33
